Time;durP1;ratioP1;P1;durP2;ratioP2;P2;SDS_P1;SDS_P2;PMS_P1;PMS_P2;Temp;Humidity;BMP_temperature;BMP_pressure;BME280_temperature;BME280_humidity;BME280_pressure;Samples;Min_cycle;Max_cycle;Signal;HPM_P1;HPM_P2
2021/12/05 00:23:28;;;;;;;35.53;23.60;;;;;;;;;;5043526;28;20036;-80
2021/12/05 00:25:56;;;;;;;38.38;22.98;;;;;;;;;;5039975;28;20021;-80
2021/12/05 00:34:23;;;;;;;36.13;22.50;;;;;;;;;;5044739;28;20502;-79
2021/12/05 00:45:26;;;;;;;39.50;24.08;;;;;;;;;;5055467;28;20039;-80
2021/12/05 00:57:56;;;;;;;39.45;24.05;;;;;;;;;;5059047;28;20029;-80
2021/12/05 01:16:37;;;;;;;44.50;26.88;;;;;;;;;;5077986;28;20512;-80
2021/12/05 01:19:04;;;;;;;40.95;26.00;;;;;;;;;;5093042;28;20038;-79
2021/12/05 01:21:31;;;;;;;49.17;27.25;;;;;;;;;;5087325;28;20028;-79
2021/12/05 01:29:34;;;;;;;41.30;25.42;;;;;;;;;;5094182;28;20119;-80
2021/12/05 01:37:29;;;;;;;34.50;21.17;;;;;;;;;;5084927;28;20093;-79
2021/12/05 01:40:29;;;;;;;35.33;21.60;;;;;;;;;;5074009;28;20077;-79
2021/12/05 01:49:05;;;;;;;34.78;22.77;;;;;;;;;;5088773;28;20035;-79
2021/12/05 02:15:54;;;;;;;37.38;23.13;;;;;;;;;;5085819;28;20094;-78
2021/12/05 02:42:41;;;;;;;41.67;22.88;;;;;;;;;;5075437;28;20047;-78
2021/12/05 02:45:08;;;;;;;41.25;22.88;;;;;;;;;;5081411;28;20024;-78
2021/12/05 02:47:34;;;;;;;44.08;24.40;;;;;;;;;;5099618;28;20012;-78
2021/12/05 02:50:05;;;;;;;40.90;23.98;;;;;;;;;;5093547;28;20038;-79
2021/12/05 02:52:32;;;;;;;34.72;21.35;;;;;;;;;;5093723;28;20031;-79
2021/12/05 02:55:31;;;;;;;33.80;21.08;;;;;;;;;;5081650;28;20394;-78
2021/12/05 02:58:02;;;;;;;40.35;25.38;;;;;;;;;;5080074;28;20046;-78
2021/12/05 03:00:38;;;;;;;42.60;22.80;;;;;;;;;;5073664;28;20622;-78
2021/12/05 03:03:05;;;;;;;37.55;21.42;;;;;;;;;;5091620;28;20057;-78
2021/12/05 03:05:31;;;;;;;42.53;23.60;;;;;;;;;;5081828;28;20147;-78
2021/12/05 03:08:01;;;;;;;36.05;21.40;;;;;;;;;;5080306;28;20067;-78
2021/12/05 03:10:27;;;;;;;38.90;22.50;;;;;;;;;;5074663;28;20756;-78
2021/12/05 03:12:53;;;;;;;37.22;21.58;;;;;;;;;;5090933;28;20073;-78
2021/12/05 03:15:20;;;;;;;35.00;21.85;;;;;;;;;;5079416;28;20105;-78
2021/12/05 03:17:46;;;;;;;40.65;22.13;;;;;;;;;;5080154;28;20039;-78
2021/12/05 03:20:13;;;;;;;37.17;21.48;;;;;;;;;;5074461;28;20020;-77
2021/12/05 03:22:39;;;;;;;40.05;22.73;;;;;;;;;;5073161;28;20129;-78
2021/12/05 03:25:06;;;;;;;40.40;22.15;;;;;;;;;;5077196;28;20020;-78
2021/12/05 03:27:34;;;;;;;38.20;23.15;;;;;;;;;;5082554;28;20486;-78
2021/12/05 03:30:01;;;;;;;38.45;23.02;;;;;;;;;;5073514;28;20012;-78
2021/12/05 03:32:27;;;;;;;40.85;22.95;;;;;;;;;;5073663;28;20336;-78
2021/12/05 03:34:53;;;;;;;39.20;22.98;;;;;;;;;;5080567;28;20021;-78
2021/12/05 03:37:20;;;;;;;37.90;22.98;;;;;;;;;;5081670;28;20116;-78
2021/12/05 03:39:46;;;;;;;40.78;23.70;;;;;;;;;;5093555;28;20043;-78
2021/12/05 03:42:12;;;;;;;42.33;23.15;;;;;;;;;;5093138;28;20167;-78
2021/12/05 03:44:38;;;;;;;44.08;24.23;;;;;;;;;;5086723;28;20095;-78
2021/12/05 03:47:06;;;;;;;43.28;24.85;;;;;;;;;;5079338;28;20025;-78
2021/12/05 03:49:32;;;;;;;41.55;24.25;;;;;;;;;;5073823;28;20021;-78
2021/12/05 03:52:00;;;;;;;45.88;25.02;;;;;;;;;;5073581;28;20259;-77
2021/12/05 03:54:27;;;;;;;45.13;24.55;;;;;;;;;;5089138;28;20036;-78
2021/12/05 03:56:53;;;;;;;43.35;25.33;;;;;;;;;;5081781;28;20142;-78
2021/12/05 03:59:19;;;;;;;41.92;24.25;;;;;;;;;;5092339;28;20067;-78
2021/12/05 04:01:47;;;;;;;45.10;24.77;;;;;;;;;;5092192;28;20114;-78
2021/12/05 04:04:13;;;;;;;46.15;24.90;;;;;;;;;;5075736;28;20035;-78
2021/12/05 04:06:39;;;;;;;46.08;26.27;;;;;;;;;;5087258;28;20133;-78
2021/12/05 04:09:08;;;;;;;44.15;26.10;;;;;;;;;;5081963;28;20024;-78
2021/12/05 04:11:38;;;;;;;46.85;23.38;;;;;;;;;;5092395;28;20024;-79
2021/12/05 04:14:05;;;;;;;50.13;26.10;;;;;;;;;;5079488;28;20494;-77
2021/12/05 04:16:32;;;;;;;47.78;24.80;;;;;;;;;;5071570;28;20032;-78
2021/12/05 04:18:59;;;;;;;47.08;26.13;;;;;;;;;;5091205;28;20024;-78
2021/12/05 04:21:25;;;;;;;46.42;25.25;;;;;;;;;;5072053;28;20027;-78
2021/12/05 04:23:52;;;;;;;46.50;25.08;;;;;;;;;;5076524;28;20032;-78
2021/12/05 04:26:19;;;;;;;51.70;26.52;;;;;;;;;;5077270;28;20116;-77
2021/12/05 04:28:46;;;;;;;44.63;24.90;;;;;;;;;;5072390;28;20363;-78
2021/12/05 04:31:12;;;;;;;46.95;27.48;;;;;;;;;;5070972;28;20682;-78
2021/12/05 04:33:39;;;;;;;50.08;26.30;;;;;;;;;;5072065;28;20067;-78
2021/12/05 04:36:06;;;;;;;49.83;26.85;;;;;;;;;;5077251;28;20304;-78
2021/12/05 04:38:32;;;;;;;49.55;27.15;;;;;;;;;;5075202;28;20063;-78
2021/12/05 04:40:58;;;;;;;43.75;25.90;;;;;;;;;;5072783;28;20056;-78
2021/12/05 04:43:24;;;;;;;47.72;25.40;;;;;;;;;;5070924;28;20020;-78
2021/12/05 04:45:50;;;;;;;39.30;23.77;;;;;;;;;;5081037;28;20024;-78
2021/12/05 04:48:16;;;;;;;39.85;22.58;;;;;;;;;;5083969;28;20046;-78
2021/12/05 04:50:44;;;;;;;35.95;21.10;;;;;;;;;;5072049;28;20021;-78
2021/12/05 04:53:11;;;;;;;32.33;20.58;;;;;;;;;;5072546;28;20025;-78
2021/12/05 04:55:37;;;;;;;35.08;19.83;;;;;;;;;;5072016;28;20040;-78
2021/12/05 04:58:05;;;;;;;34.22;20.27;;;;;;;;;;5070764;28;20068;-78
2021/12/05 05:00:34;;;;;;;33.65;19.98;;;;;;;;;;5072857;28;20017;-78
2021/12/05 05:03:01;;;;;;;31.15;19.75;;;;;;;;;;5071454;28;20020;-76
2021/12/05 05:05:28;;;;;;;35.67;20.52;;;;;;;;;;5071417;28;20035;-77
2021/12/05 05:07:54;;;;;;;37.75;22.35;;;;;;;;;;5085132;28;20030;-77
2021/12/05 05:10:25;;;;;;;37.25;21.90;;;;;;;;;;5086641;28;20071;-78
2021/12/05 05:12:51;;;;;;;41.05;22.13;;;;;;;;;;5071080;28;20052;-78
2021/12/05 05:15:22;;;;;;;44.70;24.33;;;;;;;;;;5073711;28;20107;-78
2021/12/05 05:17:50;;;;;;;41.33;22.98;;;;;;;;;;5076974;28;20057;-78
2021/12/05 05:20:28;;;;;;;36.03;21.80;;;;;;;;;;5087659;28;20173;-78
2021/12/05 05:28:29;;;;;;;40.53;22.67;;;;;;;;;;5084258;28;20032;-78
2021/12/05 05:47:10;;;;;;;41.88;22.52;;;;;;;;;;5073206;28;20078;-78
2021/12/05 05:52:22;;;;;;;40.80;21.67;;;;;;;;;;5072709;28;20043;-77
2021/12/05 05:54:49;;;;;;;38.83;20.13;;;;;;;;;;5081242;28;20059;-78
2021/12/05 05:57:24;;;;;;;40.30;22.20;;;;;;;;;;5077718;28;20028;-78
2021/12/05 06:00:00;;;;;;;36.17;20.33;;;;;;;;;;5071004;28;21717;-78
2021/12/05 06:05:12;;;;;;;39.13;21.80;;;;;;;;;;5081107;28;20117;-77
2021/12/05 06:07:45;;;;;;;40.47;21.65;;;;;;;;;;5074731;28;20044;-78
2021/12/05 06:10:14;;;;;;;38.38;20.75;;;;;;;;;;5082615;28;20043;-78
2021/12/05 06:12:40;;;;;;;38.42;21.23;;;;;;;;;;5091468;28;20046;-78
2021/12/05 06:15:08;;;;;;;37.20;19.45;;;;;;;;;;5080440;28;20508;-77
2021/12/05 06:17:34;;;;;;;39.67;22.27;;;;;;;;;;5081969;28;20020;-78
2021/12/05 06:20:00;;;;;;;34.13;21.05;;;;;;;;;;5080875;28;20111;-78
2021/12/05 06:22:26;;;;;;;35.33;19.80;;;;;;;;;;5082877;28;20032;-78
2021/12/05 06:24:52;;;;;;;32.92;18.63;;;;;;;;;;5086135;28;20119;-78
2021/12/05 06:27:18;;;;;;;34.40;19.63;;;;;;;;;;5073439;28;20024;-78
2021/12/05 06:29:53;;;;;;;30.85;19.88;;;;;;;;;;5080491;28;20070;-77
2021/12/05 06:32:40;;;;;;;33.05;20.67;;;;;;;;;;5079532;28;20047;-78
2021/12/05 06:38:06;;;;;;;29.13;18.55;;;;;;;;;;5085629;28;20042;-78
2021/12/05 06:49:03;;;;;;;38.58;22.95;;;;;;;;;;5060155;28;20037;-78
2021/12/05 06:51:30;;;;;;;36.30;23.48;;;;;;;;;;5049544;28;20035;-78
2021/12/05 06:53:57;;;;;;;35.92;21.85;;;;;;;;;;5059154;28;20452;-78
2021/12/05 06:56:24;;;;;;;36.03;21.52;;;;;;;;;;5052254;28;20037;-78
2021/12/05 06:58:50;;;;;;;40.10;22.67;;;;;;;;;;5060086;28;20045;-78
2021/12/05 07:01:16;;;;;;;35.75;21.60;;;;;;;;;;5052080;28;20075;-78
2021/12/05 07:03:45;;;;;;;37.70;22.23;;;;;;;;;;5052991;28;20025;-78
2021/12/05 07:06:18;;;;;;;39.03;23.25;;;;;;;;;;5060349;28;20131;-78
2021/12/05 07:08:44;;;;;;;42.22;24.75;;;;;;;;;;5059733;28;20403;-78
2021/12/05 07:11:17;;;;;;;39.38;23.58;;;;;;;;;;5064259;28;20142;-78
2021/12/05 07:40:28;;;;;;;43.70;26.80;;;;;;;;;;5086897;28;20118;-78
2021/12/05 07:42:55;;;;;;;47.30;27.35;;;;;;;;;;5077969;28;20433;-78
2021/12/05 07:45:28;;;;;;;46.80;27.38;;;;;;;;;;5075266;28;20103;-78
2021/12/05 07:47:55;;;;;;;49.38;26.15;;;;;;;;;;5097192;28;20027;-77
2021/12/05 07:50:31;;;;;;;47.53;27.85;;;;;;;;;;5093446;28;20085;-78
2021/12/05 07:53:05;;;;;;;39.53;23.38;;;;;;;;;;5099749;28;20011;-78
2021/12/05 07:55:38;;;;;;;48.92;26.02;;;;;;;;;;5087433;28;20016;-79
2021/12/05 08:14:36;;;;;;;44.40;25.35;;;;;;;;;;5086031;28;20031;-79
2021/12/05 08:17:04;;;;;;;41.30;24.50;;;;;;;;;;5084529;28;20035;-79
2021/12/05 08:19:31;;;;;;;43.88;24.55;;;;;;;;;;5088523;28;20031;-79
2021/12/05 08:21:57;;;;;;;39.33;23.25;;;;;;;;;;5075384;28;20028;-79
2021/12/05 08:24:31;;;;;;;40.75;23.73;;;;;;;;;;5075781;28;20164;-76
2021/12/05 08:26:57;;;;;;;38.45;21.90;;;;;;;;;;5084438;28;20107;-76
2021/12/05 08:29:41;;;;;;;37.60;22.40;;;;;;;;;;5077406;28;20103;-76
2021/12/05 08:32:19;;;;;;;35.22;20.92;;;;;;;;;;5091702;28;20174;-79
2021/12/05 08:34:58;;;;;;;34.03;21.63;;;;;;;;;;5074001;28;20036;-79
2021/12/05 09:29:04;;;;;;;46.67;26.65;;;;;;;;;;5079572;28;20028;-77
2021/12/05 09:40:08;;;;;;;46.13;27.80;;;;;;;;;;5085851;28;20062;-78
2021/12/05 10:09:44;;;;;;;47.08;28.55;;;;;;;;;;5078866;28;20139;-78
2021/12/05 10:12:39;;;;;;;32.25;20.33;;;;;;;;;;5106220;28;20036;-78
2021/12/05 10:15:25;;;;;;;34.90;19.33;;;;;;;;;;5088752;28;20028;-78
2021/12/05 10:37:47;;;;;;;35.85;22.70;;;;;;;;;;5077345;28;20041;-79
2021/12/05 10:40:19;;;;;;;31.40;20.38;;;;;;;;;;5079438;28;20082;-79
2021/12/05 10:42:47;;;;;;;29.67;19.80;;;;;;;;;;5089567;28;20016;-79
2021/12/05 10:45:19;;;;;;;38.42;23.92;;;;;;;;;;5084205;28;20081;-78
2021/12/05 10:47:47;;;;;;;31.80;20.30;;;;;;;;;;5082691;28;20051;-78
2021/12/05 10:50:32;;;;;;;31.30;22.08;;;;;;;;;;5093202;28;20020;-78
2021/12/05 10:53:18;;;;;;;29.58;18.77;;;;;;;;;;5085840;28;20413;-78
2021/12/05 10:55:44;;;;;;;32.85;22.20;;;;;;;;;;5091779;28;20028;-78
2021/12/05 10:58:10;;;;;;;24.23;16.17;;;;;;;;;;5090637;28;20111;-79
2021/12/05 11:00:36;;;;;;;29.55;21.48;;;;;;;;;;5076532;28;20032;-79
2021/12/05 11:03:16;;;;;;;26.15;17.13;;;;;;;;;;5077297;28;20656;-78
2021/12/05 11:05:42;;;;;;;17.65;11.25;;;;;;;;;;5080646;28;20017;-79
2021/12/05 11:08:27;;;;;;;23.40;14.25;;;;;;;;;;5085567;28;20020;-78
2021/12/05 11:11:13;;;;;;;12.93;7.90;;;;;;;;;;5079602;28;20039;-78
2021/12/05 11:13:40;;;;;;;12.30;7.20;;;;;;;;;;5084009;28;20085;-78
2021/12/05 11:16:25;;;;;;;11.63;7.10;;;;;;;;;;5082833;28;20371;-78
2021/12/05 11:18:51;;;;;;;11.35;6.57;;;;;;;;;;5081514;28;20038;-79
2021/12/05 11:21:46;;;;;;;11.57;7.57;;;;;;;;;;5086608;28;20099;-79
2021/12/05 11:24:20;;;;;;;11.95;7.68;;;;;;;;;;5080254;28;20025;-79
2021/12/05 11:27:01;;;;;;;10.18;6.18;;;;;;;;;;5076995;28;20032;-80
2021/12/05 11:29:39;;;;;;;8.20;5.20;;;;;;;;;;5093049;28;20020;-80
2021/12/05 11:32:09;;;;;;;9.45;5.45;;;;;;;;;;5085238;28;20043;-80
2021/12/05 11:34:35;;;;;;;9.63;6.00;;;;;;;;;;5084111;28;20077;-82
2021/12/05 11:37:02;;;;;;;8.10;4.80;;;;;;;;;;5091262;28;20111;-82
2021/12/05 11:39:28;;;;;;;7.03;3.53;;;;;;;;;;5096020;28;20084;-81
2021/12/05 11:41:56;;;;;;;6.78;3.85;;;;;;;;;;5094997;28;20070;-81
2021/12/05 11:44:22;;;;;;;6.60;3.58;;;;;;;;;;5096888;28;20044;-82
2021/12/05 11:46:48;;;;;;;8.48;3.75;;;;;;;;;;5089473;28;20036;-81
2021/12/05 11:49:20;;;;;;;7.25;4.30;;;;;;;;;;5085801;28;20073;-82
2021/12/05 11:51:46;;;;;;;6.20;3.45;;;;;;;;;;5099383;28;20357;-82
2021/12/05 11:54:15;;;;;;;8.20;3.72;;;;;;;;;;5097874;28;20095;-82
2021/12/05 11:56:41;;;;;;;8.07;4.03;;;;;;;;;;5089408;28;20033;-82
2021/12/05 11:59:10;;;;;;;7.68;3.38;;;;;;;;;;5075577;28;20638;-82
2021/12/05 12:01:37;;;;;;;6.72;3.40;;;;;;;;;;5082898;28;20032;-82
2021/12/05 12:04:04;;;;;;;7.22;3.47;;;;;;;;;;5097342;28;20081;-82
2021/12/05 12:06:30;;;;;;;5.88;3.50;;;;;;;;;;5089391;28;20059;-83
2021/12/05 12:08:56;;;;;;;5.35;3.22;;;;;;;;;;5075923;28;20060;-82
2021/12/05 12:11:23;;;;;;;6.63;3.28;;;;;;;;;;5075483;28;20029;-82
2021/12/05 12:13:50;;;;;;;7.35;3.67;;;;;;;;;;5077038;28;20024;-80
2021/12/05 12:16:17;;;;;;;6.72;3.90;;;;;;;;;;5080803;28;20414;-82
2021/12/05 12:18:47;;;;;;;8.40;4.07;;;;;;;;;;5097079;28;20473;-82
2021/12/05 12:21:17;;;;;;;6.82;3.92;;;;;;;;;;5095606;28;20024;-83
2021/12/05 12:23:44;;;;;;;5.35;2.90;;;;;;;;;;5095237;28;20072;-83
2021/12/05 12:26:10;;;;;;;5.60;3.17;;;;;;;;;;5093620;28;20116;-83
2021/12/05 12:28:37;;;;;;;7.20;3.45;;;;;;;;;;5074918;28;20024;-83
2021/12/05 12:31:09;;;;;;;8.88;3.53;;;;;;;;;;5076906;28;20106;-83
2021/12/05 12:33:36;;;;;;;5.63;3.20;;;;;;;;;;5076819;28;20417;-83
2021/12/05 12:36:03;;;;;;;5.70;3.42;;;;;;;;;;5076748;28;20035;-83
2021/12/05 12:38:29;;;;;;;8.07;3.97;;;;;;;;;;5095062;28;20024;-83
2021/12/05 12:40:58;;;;;;;6.25;3.45;;;;;;;;;;5076363;28;20488;-83
2021/12/05 12:43:27;;;;;;;8.07;3.65;;;;;;;;;;5076258;28;20243;-83
2021/12/05 12:45:53;;;;;;;7.00;3.75;;;;;;;;;;5076401;28;20028;-83
2021/12/05 12:48:22;;;;;;;7.57;3.60;;;;;;;;;;5096405;28;20042;-83
2021/12/05 12:50:52;;;;;;;7.72;3.63;;;;;;;;;;5091447;28;20114;-83
2021/12/05 12:53:18;;;;;;;5.80;3.20;;;;;;;;;;5074810;28;20025;-83
2021/12/05 12:55:55;;;;;;;7.82;4.10;;;;;;;;;;5075706;28;20363;-83
2021/12/05 12:58:55;;;;;;;8.80;3.30;;;;;;;;;;5075677;28;20040;-84
2021/12/05 13:12:31;;;;;;;5.47;2.65;;;;;;;;;;5093098;28;20038;-83
2021/12/05 13:15:24;;;;;;;6.85;3.13;;;;;;;;;;5071640;28;20067;-82
2021/12/05 13:17:58;;;;;;;6.60;3.17;;;;;;;;;;5069019;28;20040;-83
2021/12/05 13:20:47;;;;;;;6.90;3.20;;;;;;;;;;5076300;28;20028;-83
2021/12/05 13:23:18;;;;;;;6.80;3.30;;;;;;;;;;5092858;28;20036;-83
2021/12/05 13:25:56;;;;;;;6.30;3.00;;;;;;;;;;5076079;28;20020;-83
2021/12/05 13:28:31;;;;;;;8.32;3.45;;;;;;;;;;5055601;28;20033;-83
2021/12/05 13:30:59;;;;;;;5.63;3.00;;;;;;;;;;5072592;28;20077;-82
2021/12/05 13:33:26;;;;;;;5.57;3.20;;;;;;;;;;5056093;28;20082;-83
2021/12/05 13:35:58;;;;;;;8.25;3.42;;;;;;;;;;5055986;28;20556;-83
2021/12/05 13:38:32;;;;;;;6.30;2.92;;;;;;;;;;5086584;28;20030;-83
2021/12/05 13:41:19;;;;;;;5.18;2.47;;;;;;;;;;5093794;28;20115;-83
2021/12/05 13:43:58;;;;;;;6.35;2.70;;;;;;;;;;5095058;28;20028;-82
2021/12/05 13:46:32;;;;;;;6.53;3.10;;;;;;;;;;5091101;28;20486;-82
2021/12/05 13:48:58;;;;;;;4.97;2.35;;;;;;;;;;5073423;28;20119;-83
2021/12/05 13:51:26;;;;;;;7.72;2.83;;;;;;;;;;5073277;28;20489;-82
2021/12/05 13:53:52;;;;;;;5.80;3.08;;;;;;;;;;5074051;28;20487;-82
2021/12/05 13:56:24;;;;;;;8.55;3.58;;;;;;;;;;5077295;28;21227;-82
2021/12/05 13:58:51;;;;;;;6.05;2.85;;;;;;;;;;5092993;28;20109;-82
2021/12/05 14:01:23;;;;;;;6.03;3.20;;;;;;;;;;5094739;28;20504;-82
2021/12/05 14:03:52;;;;;;;6.65;3.08;;;;;;;;;;5083502;28;20031;-82
2021/12/05 14:06:38;;;;;;;6.97;3.13;;;;;;;;;;5073737;28;20515;-82
2021/12/05 14:09:04;;;;;;;6.53;3.47;;;;;;;;;;5074312;28;20031;-82
2021/12/05 14:11:30;;;;;;;8.40;4.30;;;;;;;;;;5074091;28;20025;-81
2021/12/05 14:13:56;;;;;;;6.72;3.70;;;;;;;;;;5072708;28;20474;-81
2021/12/05 14:16:30;;;;;;;15.10;8.52;;;;;;;;;;5074463;28;20170;-82
2021/12/05 14:18:56;;;;;;;12.75;6.97;;;;;;;;;;5093683;28;20028;-82
2021/12/05 14:21:24;;;;;;;11.50;6.82;;;;;;;;;;5095243;28;20020;-81
2021/12/05 14:23:52;;;;;;;9.40;5.70;;;;;;;;;;5094699;28;20012;-82
2021/12/05 14:26:20;;;;;;;9.65;5.40;;;;;;;;;;5092087;28;20516;-82
2021/12/05 14:28:57;;;;;;;9.70;5.22;;;;;;;;;;5093614;28;20111;-82
2021/12/05 14:31:24;;;;;;;7.85;4.97;;;;;;;;;;5097751;28;20556;-82
2021/12/05 14:33:52;;;;;;;9.00;4.90;;;;;;;;;;5091945;28;20478;-82
2021/12/05 14:36:23;;;;;;;10.30;5.22;;;;;;;;;;5077584;28;20020;-82
2021/12/05 14:39:04;;;;;;;8.93;5.40;;;;;;;;;;5078053;28;20025;-82
2021/12/05 14:41:31;;;;;;;8.10;4.75;;;;;;;;;;5096631;28;20493;-82
2021/12/05 14:43:58;;;;;;;7.95;5.00;;;;;;;;;;5092657;28;20025;-82
2021/12/05 14:46:24;;;;;;;7.25;3.70;;;;;;;;;;5075784;28;20051;-82
2021/12/05 14:49:02;;;;;;;7.93;5.03;;;;;;;;;;5077239;28;20028;-82
2021/12/05 14:51:35;;;;;;;8.43;5.25;;;;;;;;;;5082879;28;20032;-82
2021/12/05 14:54:02;;;;;;;11.18;5.35;;;;;;;;;;5091482;28;20048;-82
2021/12/05 14:56:30;;;;;;;10.02;5.43;;;;;;;;;;5076874;28;20099;-82
2021/12/05 14:59:07;;;;;;;12.90;6.55;;;;;;;;;;5077005;28;20045;-82
2021/12/05 15:01:34;;;;;;;12.82;7.25;;;;;;;;;;5077824;28;20020;-82
2021/12/05 15:04:02;;;;;;;13.43;6.85;;;;;;;;;;5082240;28;20036;-82
2021/12/05 15:06:35;;;;;;;18.58;10.98;;;;;;;;;;5097243;28;20410;-82
2021/12/05 15:09:01;;;;;;;26.27;13.77;;;;;;;;;;5097237;28;20326;-82
2021/12/05 15:11:27;;;;;;;23.55;13.40;;;;;;;;;;5095829;28;20020;-83
2021/12/05 15:14:02;;;;;;;17.75;9.90;;;;;;;;;;5093759;28;20368;-83
2021/12/05 15:16:27;;;;;;;14.45;8.48;;;;;;;;;;5090253;28;20024;-83
2021/12/05 15:18:54;;;;;;;14.05;9.85;;;;;;;;;;5097270;28;20086;-83
2021/12/05 15:21:21;;;;;;;14.20;9.32;;;;;;;;;;5096597;28;20020;-83
2021/12/05 15:23:47;;;;;;;12.07;8.05;;;;;;;;;;5095740;28;20043;-83
2021/12/05 15:26:14;;;;;;;12.73;9.15;;;;;;;;;;5076935;28;20031;-83
2021/12/05 15:28:40;;;;;;;13.73;8.82;;;;;;;;;;5077070;28;20423;-83
2021/12/05 15:31:07;;;;;;;13.80;9.02;;;;;;;;;;5076233;28;20095;-83
2021/12/05 15:33:34;;;;;;;13.40;8.25;;;;;;;;;;5077570;28;20033;-83
2021/12/05 15:36:01;;;;;;;13.35;8.05;;;;;;;;;;5097618;28;20032;-83
2021/12/05 15:38:29;;;;;;;11.55;7.95;;;;;;;;;;5096499;28;20028;-83
2021/12/05 15:40:58;;;;;;;13.07;7.68;;;;;;;;;;5078488;28;20371;-83
2021/12/05 15:43:26;;;;;;;11.07;7.72;;;;;;;;;;5075893;28;20040;-83
2021/12/05 15:45:53;;;;;;;13.10;8.38;;;;;;;;;;5093717;28;20489;-83
2021/12/05 15:48:26;;;;;;;11.88;8.38;;;;;;;;;;5081664;28;20036;-83
2021/12/05 15:50:52;;;;;;;11.93;6.88;;;;;;;;;;5076034;28;20029;-83
2021/12/05 15:53:19;;;;;;;14.98;6.85;;;;;;;;;;5075406;28;20085;-82
2021/12/05 15:55:47;;;;;;;12.07;7.05;;;;;;;;;;5091587;28;20035;-83
2021/12/05 15:58:19;;;;;;;12.02;7.78;;;;;;;;;;5081982;28;20044;-83
2021/12/05 16:00:47;;;;;;;10.80;7.00;;;;;;;;;;5075701;28;20020;-83
2021/12/05 16:03:15;;;;;;;12.05;7.72;;;;;;;;;;5076902;28;20028;-82
2021/12/05 16:05:42;;;;;;;14.48;8.00;;;;;;;;;;5092175;28;20058;-82
2021/12/05 16:08:13;;;;;;;11.70;7.35;;;;;;;;;;5093919;28;20016;-82
2021/12/05 16:10:41;;;;;;;14.55;8.98;;;;;;;;;;5096792;28;20461;-82
2021/12/05 16:13:09;;;;;;;11.85;7.93;;;;;;;;;;5091953;28;20100;-82
2021/12/05 16:15:35;;;;;;;13.05;8.75;;;;;;;;;;5090765;28;20020;-83
2021/12/05 16:18:02;;;;;;;12.75;8.13;;;;;;;;;;5096999;28;20088;-83
2021/12/05 16:20:45;;;;;;;14.73;7.82;;;;;;;;;;5095091;28;20031;-82
2021/12/05 16:23:21;;;;;;;12.93;7.75;;;;;;;;;;5096979;28;20103;-83
2021/12/05 16:26:06;;;;;;;12.48;7.93;;;;;;;;;;5096679;28;20076;-83
2021/12/05 16:28:32;;;;;;;14.05;7.88;;;;;;;;;;5093372;28;20034;-83
2021/12/05 16:31:00;;;;;;;13.05;8.13;;;;;;;;;;5080194;28;20029;-82
2021/12/05 16:33:29;;;;;;;13.43;7.88;;;;;;;;;;5074594;28;20383;-82
2021/12/05 16:35:55;;;;;;;13.05;8.00;;;;;;;;;;5075951;28;20020;-83
2021/12/05 16:38:27;;;;;;;14.98;8.30;;;;;;;;;;5077263;28;20082;-82
2021/12/05 16:40:57;;;;;;;12.15;7.80;;;;;;;;;;5079878;28;20035;-82
2021/12/05 16:43:23;;;;;;;12.27;7.95;;;;;;;;;;5074323;28;20029;-82
2021/12/05 16:45:49;;;;;;;12.85;7.95;;;;;;;;;;5073822;28;20032;-82
2021/12/05 16:48:18;;;;;;;16.70;11.55;;;;;;;;;;5076226;28;20444;-82
2021/12/05 16:50:44;;;;;;;12.30;8.05;;;;;;;;;;5082585;28;20048;-82
2021/12/05 16:53:13;;;;;;;11.55;7.63;;;;;;;;;;5072803;28;20028;-82
2021/12/05 16:55:44;;;;;;;13.52;8.68;;;;;;;;;;5075507;28;20032;-81
2021/12/05 16:58:17;;;;;;;10.98;6.90;;;;;;;;;;5073912;28;20108;-81
2021/12/05 17:00:43;;;;;;;;;;;;;;;;;;5084184;28;20043;-82
2021/12/05 17:03:10;;;;;;;10.77;6.95;;;;;;;;;;5074133;28;19986;-81
2021/12/05 17:05:42;;;;;;;11.93;6.70;;;;;;;;;;5074378;28;20103;-82
2021/12/05 17:08:17;;;;;;;10.85;6.85;;;;;;;;;;5074069;28;20039;-82
2021/12/05 17:10:51;;;;;;;9.65;6.05;;;;;;;;;;5076723;28;20028;-82
2021/12/05 17:13:23;;;;;;;10.63;6.55;;;;;;;;;;5086355;28;20024;-81
2021/12/05 17:15:51;;;;;;;10.93;6.80;;;;;;;;;;5093882;28;20020;-81
2021/12/05 17:18:24;;;;;;;10.85;6.25;;;;;;;;;;5091525;28;20020;-81
2021/12/05 17:20:52;;;;;;;11.85;5.97;;;;;;;;;;5090090;28;20024;-81
2021/12/05 17:23:20;;;;;;;9.50;5.90;;;;;;;;;;5095122;28;20021;-81
2021/12/05 17:25:48;;;;;;;12.63;7.10;;;;;;;;;;5095517;28;20024;-81
2021/12/05 17:28:17;;;;;;;13.68;7.43;;;;;;;;;;5095843;28;20028;-81
2021/12/05 17:30:51;;;;;;;10.10;6.10;;;;;;;;;;5084821;28;20057;-81
2021/12/05 17:33:43;;;;;;;9.13;5.95;;;;;;;;;;5075623;28;20028;-81
2021/12/05 17:36:30;;;;;;;10.80;6.00;;;;;;;;;;5074833;28;20033;-81
2021/12/05 17:38:58;;;;;;;10.52;6.00;;;;;;;;;;5084993;28;20037;-81
2021/12/05 17:41:25;;;;;;;10.73;6.55;;;;;;;;;;5094030;28;20024;-81
2021/12/05 17:43:51;;;;;;;11.70;6.70;;;;;;;;;;5095680;28;20012;-81
2021/12/05 17:46:17;;;;;;;11.65;6.47;;;;;;;;;;5094523;28;20034;-81
2021/12/05 17:48:43;;;;;;;15.57;9.75;;;;;;;;;;5083879;28;20031;-82
2021/12/05 17:51:10;;;;;;;18.42;9.13;;;;;;;;;;5073935;28;20025;-82
2021/12/05 17:53:37;;;;;;;17.58;10.40;;;;;;;;;;5092040;28;20550;-79
2021/12/05 17:56:12;;;;;;;13.80;8.38;;;;;;;;;;5089360;28;20033;-81
2021/12/05 17:58:54;;;;;;;13.18;8.82;;;;;;;;;;5081370;28;20044;-82
2021/12/05 18:04:06;;;;;;;12.00;7.50;;;;;;;;;;5093298;28;20066;-81
2021/12/05 18:06:32;;;;;;;11.25;7.32;;;;;;;;;;5079048;28;20111;-81
2021/12/05 18:08:58;;;;;;;9.07;6.03;;;;;;;;;;5080497;28;20024;-82
2021/12/05 18:11:25;;;;;;;9.70;6.35;;;;;;;;;;5085787;28;20034;-81
2021/12/05 18:13:54;;;;;;;10.20;6.28;;;;;;;;;;5099916;28;20024;-80
2021/12/05 18:16:25;;;;;;;11.80;6.10;;;;;;;;;;5093932;28;20067;-80
2021/12/05 18:18:52;;;;;;;11.32;7.03;;;;;;;;;;5097172;28;20116;-81
2021/12/05 18:21:18;;;;;;;12.55;7.18;;;;;;;;;;5088648;28;20028;-81
2021/12/05 18:23:45;;;;;;;10.57;7.22;;;;;;;;;;5081914;28;20080;-81
2021/12/05 18:26:11;;;;;;;12.32;7.97;;;;;;;;;;5078778;28;20028;-80
2021/12/05 18:28:38;;;;;;;12.98;7.45;;;;;;;;;;5081953;28;20028;-81
2021/12/05 18:31:05;;;;;;;11.07;7.30;;;;;;;;;;5096735;28;20155;-80
2021/12/05 18:33:31;;;;;;;14.90;8.07;;;;;;;;;;5086117;28;20032;-81
2021/12/05 18:35:58;;;;;;;13.73;7.45;;;;;;;;;;5096909;28;20078;-80
2021/12/05 18:38:25;;;;;;;13.45;7.90;;;;;;;;;;5087868;28;20052;-81
2021/12/05 18:40:53;;;;;;;15.25;8.75;;;;;;;;;;5084438;28;20048;-81
2021/12/05 18:43:23;;;;;;;14.15;9.10;;;;;;;;;;5083013;28;20034;-82
2021/12/05 18:45:50;;;;;;;12.70;8.50;;;;;;;;;;5094729;28;20052;-82
2021/12/05 18:48:16;;;;;;;15.35;9.50;;;;;;;;;;5081065;28;20023;-82
2021/12/05 18:50:43;;;;;;;13.00;8.18;;;;;;;;;;5076529;28;20099;-81
2021/12/05 18:53:12;;;;;;;15.00;8.30;;;;;;;;;;5095515;28;20028;-81
2021/12/05 18:55:38;;;;;;;16.33;10.13;;;;;;;;;;5080616;28;20021;-80
2021/12/05 18:58:08;;;;;;;15.32;9.27;;;;;;;;;;5085622;28;20049;-80
2021/12/05 19:04:20;;;;;;;23.30;12.98;;;;;;;;;;5078635;28;20385;-81
2021/12/05 19:06:15;;;;;;;15.23;8.98;;;;;;;;;;5090146;28;20154;-81
2021/12/05 19:09:42;;;;;;;14.02;7.43;;;;;;;;;;5077886;28;20054;-81
2021/12/05 19:11:45;;;;;;;11.73;7.10;;;;;;;;;;5072208;28;20039;-80
2021/12/05 19:14:19;;;;;;;11.85;7.80;;;;;;;;;;5089996;28;20036;-81
2021/12/05 19:16:47;;;;;;;12.68;7.20;;;;;;;;;;5095321;28;20035;-79
2021/12/05 19:19:13;;;;;;;12.57;8.48;;;;;;;;;;5088470;28;20100;-79
2021/12/05 19:21:39;;;;;;;14.82;8.25;;;;;;;;;;5110001;28;20028;-81
2021/12/05 19:24:06;;;;;;;12.27;7.53;;;;;;;;;;5095001;28;20409;-80
2021/12/05 19:26:33;;;;;;;12.90;8.10;;;;;;;;;;5098202;28;20032;-80
2021/12/05 19:28:59;;;;;;;13.75;7.97;;;;;;;;;;5090527;28;20386;-81
2021/12/05 19:31:26;;;;;;;14.30;7.93;;;;;;;;;;5079675;28;20055;-82
2021/12/05 19:33:52;;;;;;;12.05;7.85;;;;;;;;;;5090928;28;20080;-83
2021/12/05 19:36:20;;;;;;;12.27;7.45;;;;;;;;;;5076631;28;20024;-82
2021/12/05 19:38:47;;;;;;;13.75;7.85;;;;;;;;;;5074886;28;20107;-81
2021/12/05 19:41:14;;;;;;;12.55;8.10;;;;;;;;;;5075039;28;20078;-79
2021/12/05 19:43:40;;;;;;;13.38;8.05;;;;;;;;;;5075349;28;20067;-80
2021/12/05 19:46:10;;;;;;;12.25;8.27;;;;;;;;;;5092861;28;20107;-80
2021/12/05 19:48:36;;;;;;;13.45;8.10;;;;;;;;;;5096577;28;20031;-81
2021/12/05 19:51:07;;;;;;;12.55;7.93;;;;;;;;;;5094626;28;20024;-80
2021/12/05 19:53:33;;;;;;;12.25;7.72;;;;;;;;;;5077679;28;20044;-80
2021/12/05 19:55:59;;;;;;;11.70;7.38;;;;;;;;;;5102770;28;20036;-79
2021/12/05 19:58:25;;;;;;;13.02;7.55;;;;;;;;;;5096456;28;20048;-80
2021/12/05 20:00:51;;;;;;;12.77;7.97;;;;;;;;;;5094530;28;20036;-80
2021/12/05 20:03:17;;;;;;;12.18;7.68;;;;;;;;;;5088358;28;20044;-80
2021/12/05 20:05:43;;;;;;;11.23;7.93;;;;;;;;;;5087119;28;20047;-81
2021/12/05 20:08:10;;;;;;;10.75;6.95;;;;;;;;;;5084149;28;20024;-80
2021/12/05 20:10:37;;;;;;;12.93;7.55;;;;;;;;;;5075414;28;20017;-80
2021/12/05 20:13:04;;;;;;;12.48;7.60;;;;;;;;;;5073456;28;20020;-80
2021/12/05 20:15:31;;;;;;;11.95;7.57;;;;;;;;;;5079135;28;20020;-80
2021/12/05 20:17:57;;;;;;;15.32;9.50;;;;;;;;;;5095115;28;20020;-80